createdAt,value
2018-09-26T00:02:42.130Z,100137.66
2018-09-26T00:05:10.093Z,100128.25
2018-09-26T00:07:37.973Z,100129.25
2018-09-26T00:10:05.969Z,100115.26
2018-09-26T00:12:33.936Z,100107.81
2018-09-26T00:15:01.788Z,100094.63
2018-09-26T00:17:29.717Z,100086.49
2018-09-26T00:19:57.637Z,100072.91
2018-09-26T00:22:25.509Z,100063.28
2018-09-26T00:24:53.372Z,100063.83
2018-09-26T00:27:21.252Z,100059.55
2018-09-26T00:29:49.142Z,100049.15
2018-09-26T00:32:17.044Z,100041.30
2018-09-26T00:34:44.894Z,100038.53
2018-09-26T00:37:12.804Z,100034.58
2018-09-26T00:39:40.671Z,100028.08
2018-09-26T00:42:08.602Z,100024.23
2018-09-26T00:44:36.425Z,100022.45
2018-09-26T00:47:04.335Z,100019.81
2018-09-26T00:49:32.236Z,100012.45
2018-09-26T00:52:00.104Z,100008.05
2018-09-26T00:54:27.943Z,100007.97
2018-09-26T00:57:02.480Z,100005.73
2018-09-26T00:59:30.340Z,100000.47
2018-09-26T01:01:58.232Z,99996.45
2018-09-26T01:04:26.062Z,99982.88
2018-09-26T01:06:53.951Z,99984.52
2018-09-26T01:09:21.815Z,99980.16
2018-09-26T01:11:49.647Z,99977.16
2018-09-26T01:14:17.526Z,99973.34
2018-09-26T01:16:45.360Z,99967.73
2018-09-26T01:19:13.175Z,99967.73
2018-09-26T01:21:41.042Z,99960.69
2018-09-26T01:24:08.860Z,99961.48
2018-09-26T01:26:36.685Z,99957.77
2018-09-26T01:29:04.612Z,99952.91
2018-09-26T01:31:32.475Z,99943.69
2018-09-26T01:34:00.300Z,99935.78
2018-09-26T01:36:28.196Z,99922.61
2018-09-26T01:38:56.027Z,99926.88
2018-09-26T01:41:23.944Z,99913.50
2018-09-26T01:43:51.839Z,99906.91
2018-09-26T01:46:19.768Z,99889.64
2018-09-26T01:48:47.612Z,99887.77
2018-09-26T01:51:15.460Z,99874.55
2018-09-26T01:53:43.268Z,99867.41
2018-09-26T01:56:11.101Z,99864.72
2018-09-26T01:58:39.073Z,99854.03
2018-09-26T02:01:06.936Z,99852.16
2018-09-26T02:03:34.760Z,99850.33
2018-09-26T02:06:02.608Z,99847.08
2018-09-26T02:08:30.438Z,99831.97
2018-09-26T02:10:58.313Z,99824.38
2018-09-26T02:13:26.120Z,99819.01
2018-09-26T02:15:53.940Z,99809.78
2018-09-26T02:18:21.817Z,99797.80
2018-09-26T02:20:49.708Z,99779.66
2018-09-26T02:23:17.549Z,99770.33
2018-09-26T02:25:45.397Z,99772.05
2018-09-26T02:28:13.259Z,99760.95
2018-09-26T02:30:41.160Z,99750.65
2018-09-26T02:33:08.984Z,99743.14
2018-09-26T02:35:36.824Z,99734.30
2018-09-26T02:38:04.779Z,99730.25
2018-09-26T02:40:32.647Z,99725.78
2018-09-26T02:43:00.481Z,99709.40
2018-09-26T02:45:28.350Z,99693.11
2018-09-26T02:47:56.203Z,99697.38
2018-09-26T02:50:24.040Z,99683.17
2018-09-26T02:52:51.970Z,99672.62
2018-09-26T02:55:19.784Z,99648.36
2018-09-26T02:57:47.653Z,99652.68
2018-09-26T03:00:15.475Z,99643.28
2018-09-26T03:02:43.338Z,99635.77
2018-09-26T03:05:11.174Z,99613.74
2018-09-26T03:07:39.020Z,99605.27
2018-09-26T03:10:06.906Z,99596.14
2018-09-26T03:12:34.751Z,99580.22
2018-09-26T03:15:02.652Z,99558.59
2018-09-26T03:17:30.617Z,99536.99
2018-09-26T03:19:58.428Z,99520.80
2018-09-26T03:22:26.243Z,99512.89
2018-09-26T03:24:54.091Z,99514.67
2018-09-26T03:27:21.949Z,99505.84
2018-09-26T03:29:49.779Z,99499.24
2018-09-26T03:32:17.615Z,99478.04
2018-09-26T03:34:45.423Z,99482.45
2018-09-26T03:37:13.278Z,99465.78
2018-09-26T03:39:41.105Z,99465.31
2018-09-26T03:42:08.923Z,99472.77
2018-09-26T03:44:36.809Z,99465.31
2018-09-26T03:47:04.627Z,99466.17
2018-09-26T03:49:32.467Z,99457.05
2018-09-26T03:52:00.312Z,99468.91
2018-09-26T03:54:28.161Z,99455.34
2018-09-26T03:56:56.022Z,99453.55
2018-09-26T03:59:23.857Z,99437.16
2018-09-26T04:01:51.701Z,99437.55
2018-09-26T04:04:19.582Z,99414.49
2018-09-26T04:06:47.402Z,99390.36
2018-09-26T04:09:15.282Z,99367.95
2018-09-26T04:11:43.110Z,99361.73
2018-09-26T04:14:10.962Z,99355.14
2018-09-26T04:16:38.834Z,99357.78
2018-09-26T04:19:06.662Z,99343.81
2018-09-26T04:21:34.493Z,99334.58
2018-09-26T04:24:02.390Z,99311.42
2018-09-26T04:26:30.319Z,99303.05
2018-09-26T04:28:58.082Z,99284.11
2018-09-26T04:31:25.974Z,99274.03
2018-09-26T04:33:53.883Z,99257.73
2018-09-26T04:36:21.745Z,99249.44
2018-09-26T04:38:49.720Z,99246.34
2018-09-26T04:41:17.471Z,99226.17
2018-09-26T04:43:45.425Z,99217.05
2018-09-26T04:46:13.232Z,99208.17
2018-09-26T04:48:41.053Z,99198.30
2018-09-26T04:51:08.946Z,99194.26
2018-09-26T04:53:36.791Z,99196.05
2018-09-26T04:56:04.646Z,99178.89
2018-09-26T04:58:32.520Z,99166.64
2018-09-26T05:01:00.421Z,99169.94
2018-09-26T05:03:28.264Z,99139.34
2018-09-26T05:05:56.102Z,99141.13
2018-09-26T05:08:24.063Z,99126.53
2018-09-26T05:10:51.894Z,99120.22
2018-09-26T05:13:19.750Z,99117.97
2018-09-26T05:15:47.638Z,99119.36
2018-09-26T05:18:15.513Z,99115.80
2018-09-26T05:20:43.369Z,99090.62
2018-09-26T05:23:11.267Z,99081.39
2018-09-26T05:25:39.102Z,99080.92
2018-09-26T05:28:06.954Z,99069.06
2018-09-26T05:30:34.806Z,99064.17
2018-09-26T05:33:02.625Z,99066.42
2018-09-26T05:35:30.521Z,99062.08
2018-09-26T05:37:58.365Z,99050.13
2018-09-26T05:40:26.417Z,99042.30
2018-09-26T05:42:54.261Z,99023.56
2018-09-26T05:45:22.093Z,99008.13
2018-09-26T05:47:49.997Z,99004.17
2018-09-26T05:50:17.946Z,98978.64
2018-09-26T05:52:45.745Z,98968.36
2018-09-26T05:55:13.758Z,98955.91
2018-09-26T05:57:41.584Z,98935.39
2018-09-26T06:00:09.492Z,98914.30
2018-09-26T06:02:37.360Z,98916.00
2018-09-26T06:05:05.258Z,98905.80
2018-09-26T06:07:33.391Z,98900.52
2018-09-26T06:10:01.281Z,98901.84
2018-09-26T06:12:29.117Z,98898.84
2018-09-26T06:14:57.006Z,98893.58
2018-09-26T06:17:24.829Z,98885.16
2018-09-26T06:19:52.714Z,98881.20
2018-09-26T06:22:20.589Z,98862.19
2018-09-26T06:24:48.564Z,98867.26
2018-09-26T06:27:16.398Z,98869.42
2018-09-26T06:29:44.264Z,98861.55
2018-09-26T06:32:12.258Z,98864.88
2018-09-26T06:34:40.103Z,98859.98
2018-09-26T06:37:07.935Z,98857.61
2018-09-26T06:39:35.789Z,98856.20
2018-09-26T06:42:03.685Z,98856.94
2018-09-26T06:44:31.535Z,98841.20
2018-09-26T06:46:59.398Z,98838.56
2018-09-26T06:49:27.272Z,98837.88
2018-09-26T06:51:55.093Z,98830.47
2018-09-26T06:54:22.930Z,98815.62
2018-09-26T06:56:50.802Z,98820.69
2018-09-26T06:59:18.625Z,98817.38
2018-09-26T07:01:46.453Z,98794.85
2018-09-26T07:04:14.317Z,98785.78
2018-09-26T07:06:42.182Z,98776.55
2018-09-26T07:09:10.574Z,98776.59
2018-09-26T07:11:38.807Z,98772.20
2018-09-26T07:14:06.802Z,98766.83
2018-09-26T07:16:34.806Z,98755.84
2018-09-26T07:19:02.682Z,98740.03
2018-09-26T07:21:30.585Z,98735.17
2018-09-26T07:23:58.492Z,98729.10
2018-09-26T07:26:26.288Z,98722.28
2018-09-26T07:28:54.183Z,98723.22
2018-09-26T07:31:22.063Z,98710.17
2018-09-26T07:33:49.893Z,98697.69
2018-09-26T07:36:17.754Z,98694.03
2018-09-26T07:38:45.610Z,98690.81
2018-09-26T07:41:13.453Z,98679.28
2018-09-26T07:43:41.317Z,98667.16
2018-09-26T07:46:09.153Z,98667.33
2018-09-26T07:48:37.038Z,98659.54
2018-09-26T07:51:04.937Z,98666.28
2018-09-26T07:53:32.795Z,98658.20
2018-09-26T07:56:00.631Z,98659.38
2018-09-26T07:58:28.535Z,98653.47
2018-09-26T08:00:56.373Z,98652.14
2018-09-26T08:03:24.233Z,98636.63
2018-09-26T08:05:52.177Z,98641.66
2018-09-26T08:08:19.990Z,98624.62
2018-09-26T08:10:47.841Z,98620.04
2018-09-26T08:13:15.712Z,98617.53
2018-09-26T08:15:43.531Z,98618.95
2018-09-26T08:18:11.388Z,98610.01
2018-09-26T08:20:39.269Z,98597.88
2018-09-26T08:23:07.387Z,98596.54
2018-09-26T08:25:35.286Z,98596.47
2018-09-26T08:28:03.133Z,98591.31
2018-09-26T08:30:30.942Z,98588.05
2018-09-26T08:32:58.802Z,98586.20
2018-09-26T08:35:26.658Z,98572.86
2018-09-26T08:37:54.481Z,98576.70
2018-09-26T08:40:22.856Z,98574.88
2018-09-26T08:42:50.697Z,98564.32
2018-09-26T08:45:18.553Z,98566.48
2018-09-26T08:47:46.378Z,98561.20
2018-09-26T08:50:14.229Z,98557.00
2018-09-26T08:52:42.962Z,98555.08
2018-09-26T08:55:10.817Z,98551.28
2018-09-26T08:57:38.649Z,98546.15
2018-09-26T09:00:07.393Z,98542.66
2018-09-26T09:02:35.261Z,98531.41
2018-09-26T09:05:03.169Z,98528.22
2018-09-26T09:07:31.033Z,98515.03
2018-09-26T09:09:58.878Z,98514.23
2018-09-26T09:12:26.714Z,98325.40
2018-09-26T09:14:54.814Z,98497.02
2018-09-26T09:17:22.461Z,98486.63
2018-09-26T09:19:52.051Z,98476.80
2018-09-26T09:22:19.917Z,98482.59
2018-09-26T09:24:47.769Z,98480.80
2018-09-26T09:27:15.598Z,98476.59
2018-09-26T09:29:43.399Z,98468.22
2018-09-26T09:32:11.207Z,98477.33
2018-09-26T09:34:38.999Z,98465.09
2018-09-26T09:37:06.821Z,98461.47
2018-09-26T09:39:34.686Z,98453.91
2018-09-26T09:42:02.586Z,98460.87
2018-09-26T09:44:30.498Z,98461.48
2018-09-26T09:46:58.362Z,98454.17
2018-09-26T09:49:26.174Z,98429.16
2018-09-26T09:51:54.007Z,98426.65
2018-09-26T09:54:21.803Z,98422.87
2018-09-26T09:56:49.578Z,98418.69
2018-09-26T09:59:17.402Z,98407.37
2018-09-26T10:01:45.205Z,98405.22
2018-09-26T10:04:12.986Z,98405.22
2018-09-26T10:06:40.818Z,98405.30
2018-09-26T10:09:08.674Z,98402.08
2018-09-26T10:11:36.449Z,98396.42
2018-09-26T10:14:04.304Z,98394.02
2018-09-26T10:16:32.159Z,98377.17
2018-09-26T10:18:59.927Z,98368.77
2018-09-26T10:21:27.707Z,98364.88
2018-09-26T10:23:55.527Z,98365.50
2018-09-26T10:26:23.401Z,98371.38
2018-09-26T10:28:51.158Z,98362.86
2018-09-26T10:31:18.962Z,98357.76
2018-09-26T10:33:46.769Z,98353.64
2018-09-26T10:36:14.550Z,98363.20
2018-09-26T10:38:42.331Z,98345.97
2018-09-26T10:41:10.138Z,98340.08
2018-09-26T10:43:37.990Z,98327.97
2018-09-26T10:46:05.783Z,98314.48
2018-09-26T10:48:33.562Z,98312.62
2018-09-26T10:51:01.338Z,98298.88
2018-09-26T10:53:29.122Z,98304.87
2018-09-26T10:55:56.906Z,98302.98
2018-09-26T10:58:24.714Z,98297.47
2018-09-26T11:00:53.238Z,98272.30
2018-09-26T11:03:21.023Z,98282.09
2018-09-26T11:05:48.850Z,98266.23
2018-09-26T11:08:16.715Z,98296.38
2018-09-26T11:10:44.497Z,98291.15
2018-09-26T11:13:12.282Z,98292.59
2018-09-26T11:15:40.135Z,98275.99
2018-09-26T11:18:07.939Z,98281.97
2018-09-26T11:20:35.715Z,98274.12
2018-09-26T11:23:03.624Z,98265.47
2018-09-26T11:25:31.437Z,98255.45
2018-09-26T11:27:59.450Z,98254.72
2018-09-26T11:30:27.340Z,98255.75
2018-09-26T11:32:55.137Z,98257.78
2018-09-26T11:35:22.979Z,98257.44
2018-09-26T11:37:50.766Z,98250.38
2018-09-26T11:40:18.575Z,98241.59
2018-09-26T11:42:47.383Z,98248.73
2018-09-26T11:45:15.204Z,98259.74
2018-09-26T11:47:42.990Z,98248.19
2018-09-26T11:50:11.016Z,98259.50
2018-09-26T11:52:38.843Z,98258.59
2018-09-26T11:55:06.695Z,98250.84
2018-09-26T11:57:34.543Z,98237.55
2018-09-26T12:00:02.449Z,98233.86
2018-09-26T12:02:30.488Z,98231.20
2018-09-26T12:04:58.157Z,98238.39
2018-09-26T12:07:26.044Z,98228.80
2018-09-26T12:09:53.882Z,98223.31
2018-09-26T12:12:21.790Z,98223.00
2018-09-26T12:14:49.665Z,98217.98
2018-09-26T12:17:17.486Z,98223.77
2018-09-26T12:19:45.358Z,98221.66
2018-09-26T12:22:13.263Z,98217.45
2018-09-26T12:24:41.062Z,98217.91
2018-09-26T12:27:08.912Z,98198.81
2018-09-26T12:29:36.737Z,98195.21
2018-09-26T12:32:04.593Z,98200.81
2018-09-26T12:34:32.422Z,98182.73
2018-09-26T12:37:00.277Z,98174.25
2018-09-26T12:39:28.097Z,98175.91
2018-09-26T12:41:56.001Z,98173.20
2018-09-26T12:44:23.824Z,98165.03
2018-09-26T12:46:51.645Z,98170.00
2018-09-26T12:49:19.530Z,98148.43
2018-09-26T12:51:47.357Z,98139.58
2018-09-26T12:54:15.207Z,98171.09
2018-09-26T12:56:43.083Z,98162.86
2018-09-26T12:59:10.988Z,98159.86
2018-09-26T13:01:38.858Z,98157.11
2018-09-26T13:04:06.751Z,98136.06
2018-09-26T13:06:34.629Z,98139.49
2018-09-26T13:09:02.514Z,98127.55
2018-09-26T13:11:30.406Z,98113.47
2018-09-26T13:13:58.233Z,98123.70
2018-09-26T13:16:26.070Z,98107.91
2018-09-26T13:18:54.019Z,98112.30
2018-09-26T13:21:21.896Z,98108.67
2018-09-26T13:23:49.726Z,98096.73
2018-09-26T13:26:17.686Z,98090.23
2018-09-26T13:28:45.514Z,98083.34
2018-09-26T13:31:13.333Z,98076.23
2018-09-26T13:33:41.200Z,98068.22
2018-09-26T13:36:09.055Z,98062.32
2018-09-26T13:38:36.933Z,98057.66
2018-09-26T13:41:04.844Z,98038.06
2018-09-26T13:43:32.681Z,98037.74
2018-09-26T13:46:00.522Z,98029.53
2018-09-26T13:48:28.386Z,98020.55
2018-09-26T13:50:56.266Z,98023.86
2018-09-26T13:53:24.127Z,97998.89
2018-09-26T13:55:52.026Z,98005.33
2018-09-26T13:58:19.895Z,98022.77
2018-09-26T14:00:47.721Z,97996.23
2018-09-26T14:03:22.121Z,97990.48
2018-09-26T14:05:49.947Z,97985.65
2018-09-26T14:08:17.854Z,97971.64
2018-09-26T14:10:45.802Z,98000.62
2018-09-26T14:13:13.601Z,97993.80
2018-09-26T14:15:41.450Z,97982.13
2018-09-26T14:18:09.292Z,97985.72
2018-09-26T14:20:37.209Z,97977.70
2018-09-26T14:23:05.235Z,97982.81
2018-09-26T14:25:33.046Z,97959.14
2018-09-26T14:28:00.901Z,97990.73
2018-09-26T14:30:28.835Z,97981.61
2018-09-26T14:32:56.651Z,97974.50
2018-09-26T14:35:24.499Z,97954.30
2018-09-26T14:37:52.594Z,97993.28
2018-09-26T14:40:20.474Z,97996.45
2018-09-26T14:42:48.310Z,97982.09
2018-09-26T14:45:16.193Z,97996.91
2018-09-26T14:47:44.049Z,97982.94
2018-09-26T14:50:11.919Z,97982.02
2018-09-26T14:52:39.838Z,97992.98
2018-09-26T14:55:07.736Z,97981.52
2018-09-26T14:57:35.616Z,97975.97
2018-09-26T15:00:03.617Z,97972.76
2018-09-26T15:02:31.523Z,97970.59
2018-09-26T15:04:59.378Z,97973.04
2018-09-26T15:07:27.244Z,97976.05
2018-09-26T15:09:55.104Z,97973.24
2018-09-26T15:12:22.995Z,97968.38
2018-09-26T15:14:50.868Z,97980.98
2018-09-26T15:17:18.710Z,97978.13
2018-09-26T15:19:46.572Z,97958.68
2018-09-26T15:22:14.588Z,97973.72
2018-09-26T15:24:42.417Z,97954.81
2018-09-26T15:27:10.230Z,97925.51
2018-09-26T15:29:38.099Z,97973.98
2018-09-26T15:32:06.071Z,97960.09
2018-09-26T15:34:33.973Z,97971.30
2018-09-26T15:37:01.801Z,97983.80
2018-09-26T15:42:14.892Z,97983.15
2018-09-26T15:44:42.761Z,97983.48
2018-09-26T15:47:10.598Z,97978.82
2018-09-26T15:49:38.418Z,97996.09
2018-09-26T15:52:06.311Z,97955.75
2018-09-26T15:54:34.193Z,97986.42
2018-09-26T15:57:02.033Z,97979.63
2018-09-26T15:59:29.879Z,97976.53
2018-09-26T16:01:57.716Z,97971.34
2018-09-26T16:04:26.829Z,97982.09
2018-09-26T16:06:54.620Z,97988.18
2018-09-26T16:09:22.458Z,97986.77
2018-09-26T16:11:50.317Z,97981.44
2018-09-26T16:14:18.264Z,97988.78
2018-09-26T16:16:46.121Z,97989.53
2018-09-26T16:19:14.003Z,97992.12
2018-09-26T16:21:41.849Z,97985.67
2018-09-26T16:24:09.703Z,97985.46
2018-09-26T16:26:37.571Z,97972.79
2018-09-26T16:29:05.481Z,97969.09
2018-09-26T16:31:33.417Z,97976.27
2018-09-26T16:34:01.240Z,97961.84
2018-09-26T16:36:29.079Z,97943.05
2018-09-26T16:38:56.907Z,97966.56
2018-09-26T16:41:24.798Z,97971.14
2018-09-26T16:43:52.673Z,97970.88
2018-09-26T16:46:20.562Z,97975.43
2018-09-26T16:48:48.407Z,97964.32
2018-09-26T16:51:16.575Z,97968.59
2018-09-26T16:53:44.444Z,97958.73
2018-09-26T16:56:12.321Z,97944.05
2018-09-26T16:58:40.199Z,97963.39
2018-09-26T17:01:08.051Z,97964.44
2018-09-26T17:03:35.885Z,97969.66
2018-09-26T17:06:04.012Z,97971.18
2018-09-26T17:08:31.851Z,97981.44
2018-09-26T17:10:59.710Z,97969.18
2018-09-26T17:13:27.635Z,97987.66
2018-09-26T17:15:55.474Z,97972.59
2018-09-26T17:18:23.336Z,97990.20
2018-09-26T17:20:51.256Z,98000.94
2018-09-26T17:23:19.548Z,98000.77
2018-09-26T17:25:47.376Z,98006.34
2018-09-26T17:28:15.375Z,98015.16
2018-09-26T17:30:43.239Z,98001.25
2018-09-26T17:33:11.155Z,97997.04
2018-09-26T17:35:38.982Z,98009.77
2018-09-26T17:38:06.836Z,98026.52
2018-09-26T17:40:34.849Z,98019.66
2018-09-26T17:43:02.813Z,98057.96
2018-09-26T17:45:30.776Z,98052.94
2018-09-26T17:47:58.603Z,98046.41
2018-09-26T17:50:26.439Z,98049.49
2018-09-26T17:52:54.298Z,98069.19
2018-09-26T17:55:22.119Z,98083.38
2018-09-26T17:57:49.993Z,98081.81
2018-09-26T18:00:17.870Z,98070.37
2018-09-26T18:02:45.762Z,98087.05
2018-09-26T18:05:14.497Z,98100.73
2018-09-26T18:07:42.417Z,98109.98
2018-09-26T18:10:10.813Z,98101.66
2018-09-26T18:12:38.669Z,98119.99
2018-09-26T18:15:06.646Z,98098.89
2018-09-26T18:17:34.482Z,98122.66
2018-09-26T18:20:02.397Z,98120.38
2018-09-26T18:22:30.259Z,98136.84
2018-09-26T18:24:58.093Z,98136.22
2018-09-26T18:27:26.111Z,98124.34
2018-09-26T18:29:53.981Z,98126.98
2018-09-26T18:32:21.829Z,98140.94
2018-09-26T18:34:49.657Z,98141.41
2018-09-26T18:37:17.545Z,98136.40
2018-09-26T18:39:45.403Z,98160.86
2018-09-26T18:42:13.291Z,98147.28
2018-09-26T18:44:41.141Z,98147.89
2018-09-26T18:47:09.008Z,98159.66
2018-09-26T18:49:36.849Z,98156.91
2018-09-26T18:52:04.710Z,98172.17
2018-09-26T18:54:32.528Z,98188.59
2018-09-26T18:57:00.409Z,98172.39
2018-09-26T18:59:28.314Z,98178.90
2018-09-26T19:01:56.183Z,98196.15
2018-09-26T19:04:24.265Z,98170.59
2018-09-26T19:06:52.129Z,98178.28
2018-09-26T19:09:19.973Z,98175.63
2018-09-26T19:11:47.913Z,98189.81
2018-09-26T19:14:15.745Z,98190.75
2018-09-26T19:16:43.581Z,98187.28
2018-09-26T19:19:11.518Z,98192.66
2018-09-26T19:21:39.337Z,98202.03
2018-09-26T19:24:07.175Z,98204.41
2018-09-26T19:26:35.014Z,98224.18
2018-09-26T19:29:02.906Z,98220.56
2018-09-26T19:31:30.735Z,98210.16
2018-09-26T19:33:58.624Z,98234.12
2018-09-26T19:36:26.663Z,98233.50
2018-09-26T19:38:54.516Z,98227.63
2018-09-26T19:41:22.374Z,98230.27
2018-09-26T19:43:50.245Z,98237.36
2018-09-26T19:46:18.082Z,98234.08
2018-09-26T19:48:45.916Z,98241.98
2018-09-26T19:51:13.788Z,98245.80
2018-09-26T19:53:41.606Z,98259.11
2018-09-26T19:56:09.445Z,98256.95
2018-09-26T20:01:10.776Z,98272.84
2018-09-26T20:03:38.661Z,98256.66
2018-09-26T20:06:07.709Z,98271.92
2018-09-26T20:08:35.531Z,98291.94
2018-09-26T20:11:03.628Z,98303.64
2018-09-26T20:13:31.517Z,98326.75
2018-09-26T20:15:59.385Z,98321.38
2018-09-26T20:18:27.246Z,98313.49
2018-09-26T20:20:55.142Z,98331.53
2018-09-26T20:23:23.004Z,98330.93
2018-09-26T20:25:50.893Z,98347.13
2018-09-26T20:28:18.760Z,98341.63
2018-09-26T20:30:46.617Z,98346.09
2018-09-26T20:33:14.726Z,98358.16
2018-09-26T20:35:42.569Z,98370.91
2018-09-26T20:38:10.418Z,98393.17
2018-09-26T20:40:38.263Z,98363.16
2018-09-26T20:43:06.119Z,98379.52
2018-09-26T20:45:34.059Z,98388.64
2018-09-26T20:48:01.870Z,98401.82
2018-09-26T20:50:29.733Z,98395.45
2018-09-26T20:52:57.553Z,98409.89
2018-09-26T20:55:25.372Z,98413.91
2018-09-26T20:57:53.237Z,98401.70
2018-09-26T21:00:21.073Z,98418.39
2018-09-26T21:02:48.988Z,98430.44
2018-09-26T21:05:16.917Z,98428.42
2018-09-26T21:07:44.750Z,98436.11
2018-09-26T21:10:12.601Z,98443.16
2018-09-26T21:12:40.494Z,98434.76
2018-09-26T21:15:09.399Z,98447.45
2018-09-26T21:17:37.352Z,98448.66
2018-09-26T21:20:05.193Z,98464.19
2018-09-26T21:22:33.145Z,98463.55
2018-09-26T21:25:01.054Z,98482.77
2018-09-26T21:27:28.925Z,98477.89
2018-09-26T21:29:56.797Z,98483.02
2018-09-26T21:32:24.634Z,98505.03
2018-09-26T21:34:52.501Z,98497.47
2018-09-26T21:37:20.410Z,98488.97
2018-09-26T21:39:48.240Z,98502.31
2018-09-26T21:42:16.063Z,98507.07
2018-09-26T21:44:43.910Z,98507.28
2018-09-26T21:47:12.009Z,98508.77
2018-09-26T21:49:39.842Z,98510.85
2018-09-26T21:52:07.705Z,98505.29
2018-09-26T21:54:35.567Z,98516.03
2018-09-26T21:57:03.393Z,98521.73
2018-09-26T21:59:31.293Z,98525.77
2018-09-26T22:01:59.121Z,98535.14
2018-09-26T22:04:26.954Z,98529.36
2018-09-26T22:06:54.822Z,98538.22
2018-09-26T22:09:22.665Z,98539.30
2018-09-26T22:11:57.182Z,98549.10
2018-09-26T22:14:25.213Z,98539.88
2018-09-26T22:16:53.042Z,98521.68
2018-09-26T22:19:20.873Z,98544.73
2018-09-26T22:21:48.713Z,98544.01
2018-09-26T22:24:16.545Z,98549.77
2018-09-26T22:26:44.430Z,98547.17
2018-09-26T22:29:12.277Z,98531.17
2018-09-26T22:31:40.139Z,98568.49
2018-09-26T22:34:07.998Z,98569.16
2018-09-26T22:36:35.839Z,98570.51
2018-09-26T22:39:05.041Z,98558.17
2018-09-26T22:41:32.879Z,98571.83
2018-09-26T22:44:00.755Z,98566.50
2018-09-26T22:46:28.594Z,98586.27
2018-09-26T22:48:56.409Z,98575.89
2018-09-26T22:51:24.264Z,98571.77
2018-09-26T22:53:52.139Z,98580.10
2018-09-26T22:56:19.966Z,98569.86
2018-09-26T22:58:47.827Z,98599.28
2018-09-26T23:01:15.694Z,98591.02
2018-09-26T23:03:43.530Z,98604.55
2018-09-26T23:06:11.418Z,98614.82
2018-09-26T23:08:39.231Z,98609.75
2018-09-26T23:11:07.098Z,98601.97
2018-09-26T23:13:34.933Z,98626.96
2018-09-26T23:16:02.830Z,98624.81
2018-09-26T23:18:30.674Z,98649.41
2018-09-26T23:20:58.518Z,98647.36
2018-09-26T23:23:26.377Z,98640.32
2018-09-26T23:25:54.222Z,98653.75
2018-09-26T23:28:22.077Z,98646.78
2018-09-26T23:30:49.966Z,98651.58
2018-09-26T23:33:17.793Z,98645.58
2018-09-26T23:35:45.625Z,98662.22
2018-09-26T23:38:13.474Z,98674.59
2018-09-26T23:40:41.309Z,98680.13
2018-09-26T23:43:09.182Z,98680.89
2018-09-26T23:45:37.055Z,98676.67
2018-09-26T23:48:04.941Z,98699.31
2018-09-26T23:50:32.789Z,98697.61
2018-09-26T23:53:00.650Z,98719.89
2018-09-26T23:55:28.481Z,98686.62
2018-09-26T23:57:56.335Z,98713.31
